createdAt,value
2022-08-26T00:01:41.681Z,91.30
2022-08-26T00:04:12.034Z,91.99
2022-08-26T00:06:39.128Z,94.75
2022-08-26T00:09:09.450Z,95.79
2022-08-26T00:11:36.419Z,96.12
2022-08-26T00:14:03.115Z,94.75
2022-08-26T00:16:30.051Z,94.04
2022-08-26T00:18:56.949Z,91.88
2022-08-26T00:21:23.998Z,94.15
2022-08-26T00:32:06.982Z,95.96
2022-08-26T00:34:39.575Z,94.50
2022-08-26T00:37:16.219Z,95.13
2022-08-26T00:43:46.236Z,93.55
2022-08-26T00:46:50.914Z,93.77
2022-08-26T00:49:37.382Z,94.57
2022-08-26T00:52:07.074Z,95.68
2022-08-26T00:54:47.145Z,94.85
2022-08-26T01:02:06.789Z,97.01
2022-08-26T01:04:48.662Z,97.33
2022-08-26T01:07:21.852Z,97.96
2022-08-26T01:09:48.796Z,96.69
2022-08-26T01:12:15.966Z,97.78
2022-08-26T01:14:49.694Z,96.43
2022-08-26T01:17:16.507Z,95.53
2022-08-26T01:19:50.809Z,97.04
2022-08-26T01:22:56.152Z,96.13
2022-08-26T01:25:26.071Z,95.46
2022-08-26T01:27:57.573Z,97.65
2022-08-26T01:30:27.178Z,98.02
2022-08-26T01:32:57.801Z,98.06
2022-08-26T01:35:25.008Z,97.99
2022-08-26T01:37:54.620Z,98.07
2022-08-26T01:43:32.495Z,98.88
2022-08-26T01:45:59.473Z,98.68
2022-08-26T01:48:30.244Z,97.32
2022-08-26T01:51:01.028Z,96.79
2022-08-26T01:53:31.186Z,97.00
2022-08-26T01:56:00.854Z,95.54
2022-08-26T01:58:44.723Z,96.71
2022-08-26T02:01:11.706Z,97.59
2022-08-26T02:04:00.667Z,97.06
2022-08-26T02:06:27.616Z,99.34
2022-08-26T02:08:56.700Z,97.01
2022-08-26T02:11:23.750Z,96.99
2022-08-26T02:14:02.693Z,95.99
2022-08-26T02:16:34.435Z,97.88
2022-08-26T02:19:04.223Z,99.32
2022-08-26T02:21:31.212Z,98.53
2022-08-26T02:24:09.106Z,96.59
2022-08-26T02:26:35.995Z,99.78
2022-08-26T02:29:07.767Z,99.48
2022-08-26T02:31:34.460Z,99.13
2022-08-26T02:34:26.216Z,98.94
2022-08-26T02:37:02.801Z,99.21
2022-08-26T02:39:33.554Z,100.00
2022-08-26T02:42:00.188Z,98.53
2022-08-26T02:44:27.365Z,98.87
2022-08-26T02:46:54.782Z,99.53
2022-08-26T02:49:22.392Z,100.00
2022-08-26T02:51:50.194Z,99.82
2022-08-26T02:54:19.028Z,98.81
2022-08-26T02:56:45.803Z,97.83
2022-08-26T02:59:12.794Z,96.42
2022-08-26T03:01:40.778Z,98.08
2022-08-26T03:04:10.492Z,97.76
2022-08-26T03:06:40.690Z,100.00
2022-08-26T03:09:11.132Z,100.00
2022-08-26T03:11:47.410Z,98.37
2022-08-26T03:14:14.335Z,100.00
2022-08-26T03:16:41.836Z,100.00
2022-08-26T03:22:25.245Z,98.30
2022-08-26T03:25:19.654Z,99.84
2022-08-26T03:27:53.292Z,100.00
2022-08-26T03:30:56.596Z,98.74
2022-08-26T03:36:32.646Z,98.42
2022-08-26T03:42:07.268Z,99.44
2022-08-26T03:44:45.578Z,97.51
2022-08-26T03:47:34.502Z,99.34
2022-08-26T03:50:17.603Z,99.28
2022-08-26T03:53:16.177Z,99.67
2022-08-26T03:56:06.841Z,100.00
2022-08-26T03:58:58.832Z,100.00
2022-08-26T04:01:55.921Z,99.48
2022-08-26T04:04:38.768Z,100.00
2022-08-26T04:07:17.931Z,100.00
2022-08-26T04:10:05.957Z,97.80
2022-08-26T04:13:06.988Z,99.25
2022-08-26T04:15:56.721Z,100.00
2022-08-26T04:21:47.305Z,98.14
2022-08-26T04:24:28.797Z,99.57
2022-08-26T04:27:07.312Z,98.41
2022-08-26T04:33:12.607Z,97.91
2022-08-26T04:36:13.306Z,99.28
2022-08-26T04:39:32.953Z,99.41
2022-08-26T04:50:07.611Z,100.00
2022-08-26T04:52:53.599Z,100.00
2022-08-26T04:58:52.177Z,100.00
2022-08-26T05:01:45.133Z,100.00
2022-08-26T05:05:05.556Z,100.00
2022-08-26T05:07:36.731Z,99.96
2022-08-26T06:34:58.222Z,97.15
2022-08-26T07:00:36.026Z,93.81
2022-08-26T07:10:26.474Z,93.17
2022-08-26T08:52:59.391Z,72.63
2022-08-26T08:56:03.343Z,71.10
2022-08-26T08:58:59.171Z,71.70
2022-08-26T09:05:34.722Z,70.20
2022-08-26T09:08:15.825Z,69.66
2022-08-26T09:11:14.093Z,69.73
2022-08-26T09:13:47.880Z,72.35
2022-08-26T09:16:28.105Z,70.74
2022-08-26T09:19:33.857Z,70.20
2022-08-26T09:22:08.769Z,70.52
2022-08-26T09:24:56.459Z,70.89
2022-08-26T09:28:02.858Z,67.77
2022-08-26T09:30:41.526Z,68.71
2022-08-26T09:33:24.333Z,67.97
2022-08-26T09:36:31.328Z,71.44
2022-08-26T09:42:06.893Z,69.51
2022-08-26T09:45:25.783Z,66.39
2022-08-26T09:48:04.989Z,65.68
2022-08-26T09:51:28.084Z,65.38
2022-08-26T09:58:08.738Z,67.55
2022-08-26T10:01:07.065Z,66.49
2022-08-26T10:03:41.286Z,67.84
2022-08-26T10:06:17.072Z,66.37
2022-08-26T10:08:57.778Z,64.76
2022-08-26T10:15:16.196Z,63.27
2022-08-26T10:22:18.832Z,65.45
2022-08-26T10:25:09.032Z,65.08
2022-08-26T10:31:40.384Z,63.89
2022-08-26T10:34:12.583Z,60.74
2022-08-26T10:37:41.747Z,59.06
2022-08-26T10:40:35.812Z,59.07
2022-08-26T10:43:31.952Z,63.60
2022-08-26T10:46:10.147Z,64.09
2022-08-26T10:49:08.614Z,62.62
2022-08-26T10:51:54.995Z,60.99
2022-08-26T10:54:46.593Z,61.74
2022-08-26T10:58:26.578Z,58.31
2022-08-26T11:01:47.066Z,57.77
2022-08-26T11:08:36.532Z,57.37
2022-08-26T11:11:03.259Z,60.30
2022-08-26T11:14:16.624Z,60.72
2022-08-26T11:16:59.159Z,61.46
2022-08-26T11:19:58.879Z,62.84
2022-08-26T11:22:30.364Z,62.17
2022-08-26T11:24:57.497Z,60.71
2022-08-26T11:27:25.001Z,58.60
2022-08-26T11:35:38.086Z,60.76
2022-08-26T11:38:28.630Z,60.05
2022-08-26T11:41:22.659Z,59.31
2022-08-26T11:43:53.222Z,60.36
2022-08-26T11:46:35.867Z,61.53
2022-08-26T11:49:06.063Z,61.20
2022-08-26T11:51:38.215Z,58.84
2022-08-26T12:06:29.859Z,61.16
2022-08-26T12:09:06.222Z,60.79
2022-08-26T12:11:42.096Z,63.87
2022-08-26T12:14:27.710Z,65.76
2022-08-26T12:16:54.808Z,67.50
2022-08-26T12:19:46.224Z,69.61
2022-08-26T12:22:29.431Z,68.95
2022-08-26T12:24:59.208Z,71.95
2022-08-26T12:27:35.687Z,72.47
2022-08-26T13:01:43.585Z,100.00
2022-08-26T13:04:31.961Z,100.00
2022-08-26T13:07:27.304Z,100.00
2022-08-26T13:10:02.425Z,100.00
2022-08-26T13:12:34.892Z,100.00
2022-08-26T13:17:29.816Z,100.00
2022-08-26T13:20:01.275Z,100.00
2022-08-26T13:22:30.069Z,100.00
2022-08-26T13:24:57.526Z,100.00
2022-08-26T13:27:26.434Z,100.00
2022-08-26T13:29:54.008Z,100.00
2022-08-26T13:32:25.175Z,100.00
2022-08-26T13:34:56.434Z,100.00
2022-08-26T13:37:34.383Z,100.00
2022-08-26T13:40:04.906Z,100.00
2022-08-26T13:42:31.525Z,100.00
2022-08-26T13:44:58.942Z,100.00
2022-08-26T13:47:26.247Z,100.00
2022-08-26T13:49:54.596Z,100.00
2022-08-26T13:52:29.155Z,100.00
2022-08-26T13:54:57.274Z,100.00
2022-08-26T13:57:24.753Z,100.00
2022-08-26T13:59:53.986Z,100.00
2022-08-26T14:02:31.228Z,100.00
2022-08-26T14:04:57.811Z,100.00
2022-08-26T14:07:24.555Z,100.00
2022-08-26T14:09:51.134Z,100.00
2022-08-26T14:12:17.933Z,100.00
2022-08-26T14:14:45.081Z,100.00
2022-08-26T14:17:17.784Z,100.00
2022-08-26T14:19:47.058Z,100.00
2022-08-26T14:22:17.385Z,100.00
2022-08-26T14:24:45.150Z,100.00
2022-08-26T14:27:12.962Z,100.00
2022-08-26T14:29:40.101Z,100.00
2022-08-26T14:32:11.525Z,100.00
2022-08-26T14:34:41.397Z,100.00
2022-08-26T14:37:09.889Z,100.00
2022-08-26T14:39:39.021Z,100.00
2022-08-26T14:42:06.520Z,100.00
2022-08-26T14:44:33.652Z,100.00
2022-08-26T14:47:03.855Z,100.00
2022-08-26T14:49:31.334Z,100.00
2022-08-26T14:52:01.417Z,100.00
2022-08-26T14:54:29.585Z,100.00
2022-08-26T14:57:19.627Z,100.00
2022-08-26T14:59:52.940Z,100.00
2022-08-26T15:02:33.196Z,100.00
2022-08-26T15:05:00.492Z,100.00
2022-08-26T15:07:41.783Z,100.00
2022-08-26T15:10:13.444Z,100.00
2022-08-26T15:12:42.462Z,100.00
2022-08-26T15:15:11.301Z,100.00
2022-08-26T15:17:41.141Z,100.00
2022-08-26T15:20:12.550Z,100.00
2022-08-26T15:22:39.919Z,100.00
2022-08-26T15:25:07.705Z,100.00
2022-08-26T15:27:36.808Z,100.00
2022-08-26T15:30:07.018Z,100.00
2022-08-26T15:32:33.562Z,100.00
2022-08-26T15:35:00.075Z,100.00
2022-08-26T15:37:26.589Z,100.00
2022-08-26T15:39:58.802Z,100.00
2022-08-26T15:42:25.438Z,100.00
2022-08-26T15:44:52.377Z,100.00
2022-08-26T15:47:19.252Z,100.00
2022-08-26T15:49:45.898Z,100.00
2022-08-26T15:52:12.401Z,100.00
2022-08-26T15:54:39.659Z,100.00
2022-08-26T15:57:10.757Z,100.00
2022-08-26T15:59:38.171Z,100.00
2022-08-26T16:02:05.424Z,100.00
2022-08-26T16:04:32.309Z,100.00
2022-08-26T16:06:59.191Z,100.00
2022-08-26T16:09:27.227Z,100.00
2022-08-26T16:11:54.950Z,100.00
2022-08-26T16:14:22.252Z,100.00
2022-08-26T16:16:49.020Z,100.00
2022-08-26T16:19:15.860Z,100.00
2022-08-26T16:21:43.106Z,100.00
2022-08-26T16:24:09.950Z,100.00
2022-08-26T16:26:38.610Z,100.00
2022-08-26T16:29:14.486Z,100.00
2022-08-26T16:31:41.845Z,100.00
2022-08-26T16:34:09.612Z,100.00
2022-08-26T16:36:42.687Z,100.00
2022-08-26T16:39:15.678Z,100.00
2022-08-26T16:41:42.426Z,100.00
2022-08-26T16:44:12.250Z,100.00
2022-08-26T16:46:39.833Z,100.00
2022-08-26T16:49:06.628Z,100.00
2022-08-26T16:51:48.751Z,100.00
2022-08-26T16:54:15.859Z,100.00
2022-08-26T16:56:42.651Z,100.00
2022-08-26T16:59:11.714Z,100.00
2022-08-26T17:01:38.722Z,100.00
2022-08-26T17:04:05.411Z,100.00
2022-08-26T17:06:31.909Z,100.00
2022-08-26T17:08:58.645Z,100.00
2022-08-26T17:11:25.567Z,100.00
2022-08-26T17:13:52.270Z,100.00
2022-08-26T17:16:21.278Z,100.00
2022-08-26T17:18:49.965Z,100.00
2022-08-26T17:21:16.688Z,100.00
2022-08-26T17:23:43.736Z,100.00
2022-08-26T17:26:12.128Z,100.00
2022-08-26T17:28:39.649Z,100.00
2022-08-26T17:31:06.940Z,100.00
2022-08-26T17:33:33.984Z,100.00
2022-08-26T17:36:00.780Z,100.00
2022-08-26T17:38:29.320Z,100.00
2022-08-26T17:41:07.192Z,100.00
2022-08-26T17:43:34.566Z,100.00
2022-08-26T17:46:07.486Z,100.00
2022-08-26T17:48:57.137Z,100.00
2022-08-26T17:51:37.771Z,100.00
2022-08-26T17:54:36.038Z,100.00
2022-08-26T21:37:21.889Z,100.00
2022-08-26T21:39:48.720Z,100.00
2022-08-26T21:42:38.492Z,100.00
2022-08-26T21:48:50.524Z,100.00
2022-08-26T21:51:20.148Z,100.00
2022-08-26T21:53:47.449Z,100.00
2022-08-26T21:56:17.107Z,100.00
2022-08-26T21:58:44.241Z,100.00
2022-08-26T22:01:17.271Z,100.00
2022-08-26T22:05:23.472Z,100.00
2022-08-26T22:07:50.115Z,100.00
2022-08-26T22:10:35.360Z,100.00
2022-08-26T22:21:00.912Z,100.00
2022-08-26T22:23:30.721Z,100.00
2022-08-26T22:26:00.874Z,100.00
2022-08-26T22:28:38.393Z,100.00
2022-08-26T22:36:01.978Z,100.00
2022-08-26T22:38:28.647Z,100.00
2022-08-26T22:40:56.562Z,100.00
2022-08-26T22:43:27.830Z,100.00
2022-08-26T22:45:55.813Z,100.00
2022-08-26T22:48:24.598Z,100.00
2022-08-26T22:50:58.239Z,100.00
2022-08-26T22:53:26.628Z,100.00
2022-08-26T22:55:53.509Z,100.00
2022-08-26T22:58:20.592Z,100.00
2022-08-26T23:00:59.241Z,100.00
2022-08-26T23:03:27.228Z,100.00
2022-08-26T23:05:55.394Z,100.00
2022-08-26T23:08:23.188Z,100.00
2022-08-26T23:10:49.745Z,100.00
2022-08-26T23:13:16.265Z,100.00
2022-08-26T23:15:44.737Z,100.00
2022-08-26T23:18:12.882Z,100.00
2022-08-26T23:20:40.647Z,100.00
2022-08-26T23:23:07.574Z,100.00
2022-08-26T23:25:34.411Z,100.00
2022-08-26T23:28:01.931Z,100.00
2022-08-26T23:30:31.186Z,100.00
2022-08-26T23:32:57.942Z,100.00
2022-08-26T23:35:24.847Z,100.00
2022-08-26T23:37:53.049Z,100.00
2022-08-26T23:40:25.501Z,100.00
2022-08-26T23:42:54.389Z,100.00
2022-08-26T23:45:22.168Z,100.00
2022-08-26T23:47:50.582Z,100.00
2022-08-26T23:50:19.574Z,100.00
2022-08-26T23:53:05.625Z,100.00
2022-08-26T23:55:37.256Z,100.00
2022-08-26T23:58:04.545Z,100.00
